sensor_id;sensor_type;location;lat;lon;timestamp;P1;durP1;ratioP1;P2;durP2;ratioP2
323;SDS011;149;51.094;17.002;2022-07-11T00:01:06;3.05;;;1.90;;
323;SDS011;149;51.094;17.002;2022-07-11T00:03:33;1.30;;;1.20;;
323;SDS011;149;51.094;17.002;2022-07-11T00:06:01;4.93;;;2.95;;
323;SDS011;149;51.094;17.002;2022-07-11T00:08:28;7.90;;;2.05;;
323;SDS011;149;51.094;17.002;2022-07-11T00:10:55;2.47;;;2.28;;
323;SDS011;149;51.094;17.002;2022-07-11T00:13:26;3.00;;;2.20;;
323;SDS011;149;51.094;17.002;2022-07-11T00:15:53;3.00;;;2.47;;
323;SDS011;149;51.094;17.002;2022-07-11T00:18:21;3.45;;;1.92;;
323;SDS011;149;51.094;17.002;2022-07-11T00:20:50;5.03;;;2.13;;
323;SDS011;149;51.094;17.002;2022-07-11T00:23:17;4.22;;;2.70;;
323;SDS011;149;51.094;17.002;2022-07-11T00:25:45;2.25;;;1.42;;
323;SDS011;149;51.094;17.002;2022-07-11T00:28:13;3.38;;;2.25;;
323;SDS011;149;51.094;17.002;2022-07-11T00:30:41;3.72;;;1.75;;
323;SDS011;149;51.094;17.002;2022-07-11T00:33:08;5.70;;;1.70;;
323;SDS011;149;51.094;17.002;2022-07-11T00:35:36;1.65;;;1.48;;
323;SDS011;149;51.094;17.002;2022-07-11T00:38:03;3.30;;;1.42;;
323;SDS011;149;51.094;17.002;2022-07-11T00:40:30;3.78;;;1.70;;
323;SDS011;149;51.094;17.002;2022-07-11T00:42:57;3.20;;;1.85;;
323;SDS011;149;51.094;17.002;2022-07-11T00:45:25;3.33;;;1.63;;
323;SDS011;149;51.094;17.002;2022-07-11T00:47:52;2.78;;;1.98;;
323;SDS011;149;51.094;17.002;2022-07-11T00:50:20;3.70;;;2.10;;
323;SDS011;149;51.094;17.002;2022-07-11T00:52:47;5.97;;;2.28;;
323;SDS011;149;51.094;17.002;2022-07-11T00:55:15;4.50;;;2.72;;
323;SDS011;149;51.094;17.002;2022-07-11T00:57:42;10.52;;;2.47;;
323;SDS011;149;51.094;17.002;2022-07-11T01:00:10;3.50;;;1.88;;
323;SDS011;149;51.094;17.002;2022-07-11T01:02:39;2.78;;;2.58;;
323;SDS011;149;51.094;17.002;2022-07-11T01:05:06;2.88;;;2.05;;
323;SDS011;149;51.094;17.002;2022-07-11T01:07:34;3.03;;;2.20;;
323;SDS011;149;51.094;17.002;2022-07-11T01:10:01;2.10;;;1.90;;
323;SDS011;149;51.094;17.002;2022-07-11T01:12:28;2.75;;;2.20;;
323;SDS011;149;51.094;17.002;2022-07-11T01:14:56;3.78;;;2.25;;
323;SDS011;149;51.094;17.002;2022-07-11T01:17:25;5.57;;;2.17;;
323;SDS011;149;51.094;17.002;2022-07-11T01:19:52;3.13;;;1.95;;
323;SDS011;149;51.094;17.002;2022-07-11T01:22:21;3.00;;;2.70;;
323;SDS011;149;51.094;17.002;2022-07-11T01:24:51;4.80;;;3.97;;
323;SDS011;149;51.094;17.002;2022-07-11T01:27:19;4.70;;;2.20;;
323;SDS011;149;51.094;17.002;2022-07-11T01:29:46;7.38;;;2.28;;
323;SDS011;149;51.094;17.002;2022-07-11T01:32:13;5.22;;;2.00;;
323;SDS011;149;51.094;17.002;2022-07-11T01:34:43;5.10;;;3.00;;
323;SDS011;149;51.094;17.002;2022-07-11T01:37:10;2.30;;;2.10;;
323;SDS011;149;51.094;17.002;2022-07-11T01:39:37;4.38;;;2.58;;
323;SDS011;149;51.094;17.002;2022-07-11T01:42:05;3.53;;;2.00;;
323;SDS011;149;51.094;17.002;2022-07-11T01:44:32;6.38;;;2.80;;
323;SDS011;149;51.094;17.002;2022-07-11T01:46:59;2.53;;;2.08;;
323;SDS011;149;51.094;17.002;2022-07-11T01:49:26;7.97;;;3.15;;
323;SDS011;149;51.094;17.002;2022-07-11T01:51:56;3.25;;;2.08;;
323;SDS011;149;51.094;17.002;2022-07-11T01:54:23;6.20;;;2.70;;
323;SDS011;149;51.094;17.002;2022-07-11T01:56:57;4.95;;;2.45;;
323;SDS011;149;51.094;17.002;2022-07-11T01:59:24;6.70;;;2.70;;
323;SDS011;149;51.094;17.002;2022-07-11T02:01:52;3.65;;;2.30;;
323;SDS011;149;51.094;17.002;2022-07-11T02:04:19;6.07;;;3.50;;
323;SDS011;149;51.094;17.002;2022-07-11T02:06:47;6.40;;;2.85;;
323;SDS011;149;51.094;17.002;2022-07-11T02:09:17;4.07;;;2.30;;
323;SDS011;149;51.094;17.002;2022-07-11T02:11:45;5.28;;;3.33;;
323;SDS011;149;51.094;17.002;2022-07-11T02:14:12;6.70;;;2.53;;
323;SDS011;149;51.094;17.002;2022-07-11T02:16:40;3.70;;;2.20;;
323;SDS011;149;51.094;17.002;2022-07-11T02:19:08;4.78;;;2.13;;
323;SDS011;149;51.094;17.002;2022-07-11T02:21:37;4.35;;;3.17;;
323;SDS011;149;51.094;17.002;2022-07-11T02:24:05;4.00;;;2.90;;
323;SDS011;149;51.094;17.002;2022-07-11T02:26:32;7.25;;;3.50;;
323;SDS011;149;51.094;17.002;2022-07-11T02:28:59;3.90;;;2.72;;
323;SDS011;149;51.094;17.002;2022-07-11T02:31:27;3.17;;;2.58;;
323;SDS011;149;51.094;17.002;2022-07-11T02:33:54;5.75;;;3.03;;
323;SDS011;149;51.094;17.002;2022-07-11T02:36:22;8.63;;;2.65;;
323;SDS011;149;51.094;17.002;2022-07-11T02:38:49;10.32;;;3.55;;
323;SDS011;149;51.094;17.002;2022-07-11T02:41:16;6.80;;;2.80;;
323;SDS011;149;51.094;17.002;2022-07-11T02:43:44;6.00;;;2.80;;
323;SDS011;149;51.094;17.002;2022-07-11T02:46:13;6.30;;;2.53;;
323;SDS011;149;51.094;17.002;2022-07-11T02:48:40;5.18;;;3.40;;
323;SDS011;149;51.094;17.002;2022-07-11T02:51:07;6.22;;;3.40;;
323;SDS011;149;51.094;17.002;2022-07-11T02:53:34;3.92;;;2.72;;
323;SDS011;149;51.094;17.002;2022-07-11T02:56:01;3.75;;;2.70;;
323;SDS011;149;51.094;17.002;2022-07-11T02:58:28;7.63;;;3.22;;
323;SDS011;149;51.094;17.002;2022-07-11T03:00:55;3.05;;;2.65;;
323;SDS011;149;51.094;17.002;2022-07-11T03:03:23;3.60;;;2.38;;
323;SDS011;149;51.094;17.002;2022-07-11T03:05:50;10.43;;;3.13;;
323;SDS011;149;51.094;17.002;2022-07-11T03:08:18;8.98;;;3.17;;
323;SDS011;149;51.094;17.002;2022-07-11T03:10:45;3.42;;;2.05;;
323;SDS011;149;51.094;17.002;2022-07-11T03:13:12;5.45;;;2.60;;
323;SDS011;149;51.094;17.002;2022-07-11T03:15:40;9.18;;;3.20;;
323;SDS011;149;51.094;17.002;2022-07-11T03:18:11;2.80;;;1.90;;
323;SDS011;149;51.094;17.002;2022-07-11T03:20:38;3.42;;;2.00;;
323;SDS011;149;51.094;17.002;2022-07-11T03:23:05;11.82;;;3.10;;
323;SDS011;149;51.094;17.002;2022-07-11T03:25:32;3.15;;;2.70;;
323;SDS011;149;51.094;17.002;2022-07-11T03:28:00;4.53;;;2.88;;
323;SDS011;149;51.094;17.002;2022-07-11T03:30:27;6.05;;;4.85;;
323;SDS011;149;51.094;17.002;2022-07-11T03:32:54;6.55;;;2.30;;
323;SDS011;149;51.094;17.002;2022-07-11T03:35:22;6.47;;;2.20;;
323;SDS011;149;51.094;17.002;2022-07-11T03:38:07;2.85;;;2.25;;
323;SDS011;149;51.094;17.002;2022-07-11T03:40:36;6.93;;;2.50;;
323;SDS011;149;51.094;17.002;2022-07-11T03:43:04;4.45;;;1.95;;
323;SDS011;149;51.094;17.002;2022-07-11T03:45:32;6.82;;;3.10;;
323;SDS011;149;51.094;17.002;2022-07-11T03:47:59;2.95;;;2.00;;
323;SDS011;149;51.094;17.002;2022-07-11T03:50:26;7.47;;;3.10;;
323;SDS011;149;51.094;17.002;2022-07-11T03:52:54;5.88;;;3.38;;
323;SDS011;149;51.094;17.002;2022-07-11T03:55:22;8.65;;;3.72;;
323;SDS011;149;51.094;17.002;2022-07-11T03:57:50;9.18;;;3.42;;
323;SDS011;149;51.094;17.002;2022-07-11T04:00:17;5.00;;;2.35;;
323;SDS011;149;51.094;17.002;2022-07-11T04:02:46;14.65;;;4.20;;
323;SDS011;149;51.094;17.002;2022-07-11T04:05:14;7.88;;;2.50;;
323;SDS011;149;51.094;17.002;2022-07-11T04:07:42;6.82;;;2.05;;
323;SDS011;149;51.094;17.002;2022-07-11T04:10:09;4.97;;;2.30;;
323;SDS011;149;51.094;17.002;2022-07-11T04:12:37;4.72;;;2.40;;
323;SDS011;149;51.094;17.002;2022-07-11T04:15:04;6.50;;;2.97;;
323;SDS011;149;51.094;17.002;2022-07-11T04:17:33;3.92;;;3.47;;
323;SDS011;149;51.094;17.002;2022-07-11T04:20:00;2.55;;;1.70;;
323;SDS011;149;51.094;17.002;2022-07-11T04:22:27;3.88;;;2.40;;
323;SDS011;149;51.094;17.002;2022-07-11T04:24:54;5.82;;;2.60;;
323;SDS011;149;51.094;17.002;2022-07-11T04:27:22;3.58;;;1.70;;
323;SDS011;149;51.094;17.002;2022-07-11T04:29:55;2.58;;;2.05;;
323;SDS011;149;51.094;17.002;2022-07-11T04:32:24;2.38;;;1.90;;
323;SDS011;149;51.094;17.002;2022-07-11T04:34:51;10.73;;;2.70;;
323;SDS011;149;51.094;17.002;2022-07-11T04:37:18;4.85;;;2.42;;
323;SDS011;149;51.094;17.002;2022-07-11T04:39:45;6.53;;;2.40;;
323;SDS011;149;51.094;17.002;2022-07-11T04:42:14;2.30;;;1.70;;
323;SDS011;149;51.094;17.002;2022-07-11T04:44:41;3.45;;;1.70;;
323;SDS011;149;51.094;17.002;2022-07-11T04:47:09;1.85;;;1.67;;
323;SDS011;149;51.094;17.002;2022-07-11T04:49:37;7.47;;;3.13;;
323;SDS011;149;51.094;17.002;2022-07-11T04:52:04;2.97;;;2.10;;
323;SDS011;149;51.094;17.002;2022-07-11T04:54:35;3.15;;;2.25;;
323;SDS011;149;51.094;17.002;2022-07-11T04:57:02;2.13;;;1.92;;
323;SDS011;149;51.094;17.002;2022-07-11T04:59:29;2.05;;;1.45;;
323;SDS011;149;51.094;17.002;2022-07-11T05:01:56;4.95;;;2.00;;
323;SDS011;149;51.094;17.002;2022-07-11T05:04:24;7.05;;;1.98;;
323;SDS011;149;51.094;17.002;2022-07-11T05:06:51;6.20;;;2.03;;
323;SDS011;149;51.094;17.002;2022-07-11T05:09:18;3.35;;;2.30;;
323;SDS011;149;51.094;17.002;2022-07-11T05:11:45;4.10;;;2.30;;
323;SDS011;149;51.094;17.002;2022-07-11T05:14:13;14.60;;;2.80;;
323;SDS011;149;51.094;17.002;2022-07-11T05:16:40;2.47;;;1.57;;
323;SDS011;149;51.094;17.002;2022-07-11T05:19:08;3.23;;;1.97;;
323;SDS011;149;51.094;17.002;2022-07-11T05:21:35;1.70;;;1.03;;
323;SDS011;149;51.094;17.002;2022-07-11T05:24:02;4.57;;;1.50;;
323;SDS011;149;51.094;17.002;2022-07-11T05:26:29;5.37;;;2.20;;
323;SDS011;149;51.094;17.002;2022-07-11T05:28:57;4.20;;;2.37;;
323;SDS011;149;51.094;17.002;2022-07-11T05:31:24;1.83;;;1.60;;
323;SDS011;149;51.094;17.002;2022-07-11T05:33:52;6.20;;;1.80;;
323;SDS011;149;51.094;17.002;2022-07-11T05:36:19;1.63;;;1.53;;
323;SDS011;149;51.094;17.002;2022-07-11T05:38:46;5.50;;;1.60;;
323;SDS011;149;51.094;17.002;2022-07-11T05:41:13;3.13;;;1.73;;
323;SDS011;149;51.094;17.002;2022-07-11T05:43:41;3.57;;;2.43;;
323;SDS011;149;51.094;17.002;2022-07-11T05:46:08;4.20;;;1.60;;
323;SDS011;149;51.094;17.002;2022-07-11T05:48:36;2.13;;;1.67;;
323;SDS011;149;51.094;17.002;2022-07-11T05:51:03;2.70;;;1.83;;
323;SDS011;149;51.094;17.002;2022-07-11T05:53:30;5.07;;;2.13;;
323;SDS011;149;51.094;17.002;2022-07-11T05:55:58;3.73;;;2.53;;
323;SDS011;149;51.094;17.002;2022-07-11T05:58:25;2.93;;;1.53;;
323;SDS011;149;51.094;17.002;2022-07-11T06:00:52;4.37;;;2.10;;
323;SDS011;149;51.094;17.002;2022-07-11T06:03:19;2.20;;;1.60;;
323;SDS011;149;51.094;17.002;2022-07-11T06:05:47;1.43;;;1.33;;
323;SDS011;149;51.094;17.002;2022-07-11T06:08:16;5.03;;;1.53;;
323;SDS011;149;51.094;17.002;2022-07-11T06:11:02;1.30;;;1.20;;
323;SDS011;149;51.094;17.002;2022-07-11T06:13:29;10.13;;;2.40;;
323;SDS011;149;51.094;17.002;2022-07-11T06:15:56;1.40;;;1.30;;
323;SDS011;149;51.094;17.002;2022-07-11T06:18:24;4.43;;;1.80;;
323;SDS011;149;51.094;17.002;2022-07-11T06:20:52;3.93;;;2.20;;
323;SDS011;149;51.094;17.002;2022-07-11T06:23:19;2.83;;;1.57;;
323;SDS011;149;51.094;17.002;2022-07-11T06:25:47;1.37;;;1.27;;
323;SDS011;149;51.094;17.002;2022-07-11T06:28:14;6.40;;;2.27;;
323;SDS011;149;51.094;17.002;2022-07-11T06:30:41;2.27;;;1.70;;
323;SDS011;149;51.094;17.002;2022-07-11T06:33:08;1.83;;;1.40;;
323;SDS011;149;51.094;17.002;2022-07-11T06:35:36;11.00;;;1.27;;
323;SDS011;149;51.094;17.002;2022-07-11T06:38:03;2.20;;;1.67;;
323;SDS011;149;51.094;17.002;2022-07-11T06:40:31;1.77;;;1.30;;
323;SDS011;149;51.094;17.002;2022-07-11T06:42:58;3.00;;;1.70;;
323;SDS011;149;51.094;17.002;2022-07-11T06:45:25;2.70;;;1.37;;
323;SDS011;149;51.094;17.002;2022-07-11T06:47:52;5.13;;;1.77;;
323;SDS011;149;51.094;17.002;2022-07-11T06:50:20;2.23;;;1.70;;
323;SDS011;149;51.094;17.002;2022-07-11T06:52:47;6.30;;;1.67;;
323;SDS011;149;51.094;17.002;2022-07-11T06:55:15;1.30;;;1.20;;
323;SDS011;149;51.094;17.002;2022-07-11T06:57:42;6.63;;;1.90;;
323;SDS011;149;51.094;17.002;2022-07-11T07:00:29;3.80;;;1.70;;
323;SDS011;149;51.094;17.002;2022-07-11T07:02:56;1.20;;;1.10;;
323;SDS011;149;51.094;17.002;2022-07-11T07:05:24;6.30;;;2.03;;
323;SDS011;149;51.094;17.002;2022-07-11T07:07:52;1.90;;;1.60;;
323;SDS011;149;51.094;17.002;2022-07-11T07:10:19;6.70;;;1.90;;
323;SDS011;149;51.094;17.002;2022-07-11T07:12:48;3.00;;;1.47;;
323;SDS011;149;51.094;17.002;2022-07-11T07:15:15;3.73;;;1.80;;
323;SDS011;149;51.094;17.002;2022-07-11T07:17:42;2.63;;;1.90;;
323;SDS011;149;51.094;17.002;2022-07-11T07:20:10;9.53;;;2.17;;
323;SDS011;149;51.094;17.002;2022-07-11T07:22:39;4.00;;;1.40;;
323;SDS011;149;51.094;17.002;2022-07-11T07:25:07;3.50;;;2.00;;
323;SDS011;149;51.094;17.002;2022-07-11T07:27:35;1.73;;;1.37;;
323;SDS011;149;51.094;17.002;2022-07-11T07:30:02;5.00;;;1.87;;
323;SDS011;149;51.094;17.002;2022-07-11T07:32:30;5.87;;;2.00;;
323;SDS011;149;51.094;17.002;2022-07-11T07:34:57;3.90;;;1.90;;
323;SDS011;149;51.094;17.002;2022-07-11T07:37:25;1.90;;;1.07;;
323;SDS011;149;51.094;17.002;2022-07-11T07:39:53;3.33;;;1.60;;
323;SDS011;149;51.094;17.002;2022-07-11T07:42:20;2.07;;;1.87;;
323;SDS011;149;51.094;17.002;2022-07-11T07:44:47;4.80;;;1.67;;
323;SDS011;149;51.094;17.002;2022-07-11T07:47:15;2.80;;;1.70;;
323;SDS011;149;51.094;17.002;2022-07-11T07:49:43;3.37;;;1.30;;
323;SDS011;149;51.094;17.002;2022-07-11T07:52:10;3.90;;;1.67;;
323;SDS011;149;51.094;17.002;2022-07-11T07:54:37;6.40;;;3.03;;
323;SDS011;149;51.094;17.002;2022-07-11T07:57:05;4.17;;;1.67;;
323;SDS011;149;51.094;17.002;2022-07-11T07:59:32;6.87;;;2.60;;
323;SDS011;149;51.094;17.002;2022-07-11T08:02:00;9.47;;;2.10;;
323;SDS011;149;51.094;17.002;2022-07-11T08:04:27;8.93;;;1.67;;
323;SDS011;149;51.094;17.002;2022-07-11T08:06:56;5.67;;;2.10;;
323;SDS011;149;51.094;17.002;2022-07-11T08:09:26;2.20;;;1.47;;
323;SDS011;149;51.094;17.002;2022-07-11T08:11:53;1.73;;;1.63;;
323;SDS011;149;51.094;17.002;2022-07-11T08:14:21;8.13;;;1.33;;
323;SDS011;149;51.094;17.002;2022-07-11T08:16:49;1.73;;;1.33;;
323;SDS011;149;51.094;17.002;2022-07-11T08:19:19;1.90;;;1.10;;
323;SDS011;149;51.094;17.002;2022-07-11T08:21:46;3.60;;;1.00;;
323;SDS011;149;51.094;17.002;2022-07-11T08:24:13;2.90;;;1.73;;
323;SDS011;149;51.094;17.002;2022-07-11T08:26:41;1.50;;;0.90;;
323;SDS011;149;51.094;17.002;2022-07-11T08:29:08;2.10;;;1.23;;
323;SDS011;149;51.094;17.002;2022-07-11T08:31:35;1.20;;;1.10;;
323;SDS011;149;51.094;17.002;2022-07-11T08:34:03;2.97;;;1.20;;
323;SDS011;149;51.094;17.002;2022-07-11T08:36:30;1.90;;;0.97;;
323;SDS011;149;51.094;17.002;2022-07-11T08:39:01;2.40;;;1.33;;
323;SDS011;149;51.094;17.002;2022-07-11T08:41:29;1.10;;;0.97;;
323;SDS011;149;51.094;17.002;2022-07-11T08:43:58;1.87;;;0.97;;
323;SDS011;149;51.094;17.002;2022-07-11T08:46:26;3.70;;;1.00;;
323;SDS011;149;51.094;17.002;2022-07-11T08:48:55;1.20;;;1.03;;
323;SDS011;149;51.094;17.002;2022-07-11T08:51:25;2.00;;;1.47;;
323;SDS011;149;51.094;17.002;2022-07-11T08:53:54;0.90;;;0.90;;
323;SDS011;149;51.094;17.002;2022-07-11T08:56:21;1.87;;;1.10;;
323;SDS011;149;51.094;17.002;2022-07-11T08:58:49;2.70;;;1.40;;
323;SDS011;149;51.094;17.002;2022-07-11T09:01:31;1.40;;;0.90;;
323;SDS011;149;51.094;17.002;2022-07-11T09:04:00;10.03;;;1.10;;
323;SDS011;149;51.094;17.002;2022-07-11T09:06:28;1.80;;;1.10;;
323;SDS011;149;51.094;17.002;2022-07-11T09:08:59;5.13;;;1.43;;
323;SDS011;149;51.094;17.002;2022-07-11T09:11:27;1.97;;;1.43;;
323;SDS011;149;51.094;17.002;2022-07-11T09:13:56;2.30;;;1.00;;
323;SDS011;149;51.094;17.002;2022-07-11T09:16:23;1.73;;;1.00;;
323;SDS011;149;51.094;17.002;2022-07-11T09:18:57;1.67;;;0.83;;
323;SDS011;149;51.094;17.002;2022-07-11T09:21:24;1.43;;;0.70;;
323;SDS011;149;51.094;17.002;2022-07-11T09:24:10;0.90;;;0.90;;
323;SDS011;149;51.094;17.002;2022-07-11T09:26:56;2.03;;;1.10;;
323;SDS011;149;51.094;17.002;2022-07-11T09:29:24;2.07;;;0.90;;
323;SDS011;149;51.094;17.002;2022-07-11T09:31:53;4.43;;;1.90;;
323;SDS011;149;51.094;17.002;2022-07-11T09:34:21;1.97;;;1.00;;
323;SDS011;149;51.094;17.002;2022-07-11T09:36:55;2.00;;;1.13;;
323;SDS011;149;51.094;17.002;2022-07-11T09:39:25;4.70;;;1.20;;
323;SDS011;149;51.094;17.002;2022-07-11T09:41:53;1.90;;;1.70;;
323;SDS011;149;51.094;17.002;2022-07-11T09:46:51;1.50;;;1.20;;
323;SDS011;149;51.094;17.002;2022-07-11T09:49:29;1.47;;;1.30;;
323;SDS011;149;51.094;17.002;2022-07-11T09:52:12;1.30;;;1.17;;
323;SDS011;149;51.094;17.002;2022-07-11T09:57:39;1.40;;;1.30;;
323;SDS011;149;51.094;17.002;2022-07-11T10:00:08;1.57;;;1.10;;
323;SDS011;149;51.094;17.002;2022-07-11T10:02:38;3.20;;;1.00;;
323;SDS011;149;51.094;17.002;2022-07-11T10:05:06;2.57;;;1.10;;
323;SDS011;149;51.094;17.002;2022-07-11T10:07:33;0.97;;;0.80;;
323;SDS011;149;51.094;17.002;2022-07-11T10:10:02;1.33;;;1.00;;
323;SDS011;149;51.094;17.002;2022-07-11T10:12:31;1.40;;;1.30;;
323;SDS011;149;51.094;17.002;2022-07-11T10:15:00;2.43;;;1.07;;
323;SDS011;149;51.094;17.002;2022-07-11T10:20:17;3.33;;;1.30;;
323;SDS011;149;51.094;17.002;2022-07-11T10:22:51;2.27;;;1.30;;
323;SDS011;149;51.094;17.002;2022-07-11T10:25:48;1.77;;;1.47;;
323;SDS011;149;51.094;17.002;2022-07-11T10:31:05;1.20;;;1.10;;
323;SDS011;149;51.094;17.002;2022-07-11T10:36:33;3.83;;;1.20;;
323;SDS011;149;51.094;17.002;2022-07-11T10:39:13;1.90;;;1.23;;
323;SDS011;149;51.094;17.002;2022-07-11T10:41:51;1.30;;;1.00;;
323;SDS011;149;51.094;17.002;2022-07-11T10:44:18;3.20;;;1.30;;
323;SDS011;149;51.094;17.002;2022-07-11T10:46:46;2.80;;;1.27;;
323;SDS011;149;51.094;17.002;2022-07-11T10:51:57;1.87;;;1.00;;
323;SDS011;149;51.094;17.002;2022-07-11T10:57:22;0.90;;;0.80;;
323;SDS011;149;51.094;17.002;2022-07-11T10:59:55;3.80;;;1.00;;
323;SDS011;149;51.094;17.002;2022-07-11T11:02:28;1.63;;;1.07;;
323;SDS011;149;51.094;17.002;2022-07-11T11:07:37;4.63;;;0.93;;
323;SDS011;149;51.094;17.002;2022-07-11T11:23:35;1.40;;;1.13;;
323;SDS011;149;51.094;17.002;2022-07-11T11:26:15;1.30;;;1.20;;
323;SDS011;149;51.094;17.002;2022-07-11T11:29:00;2.33;;;0.93;;
323;SDS011;149;51.094;17.002;2022-07-11T11:31:29;1.43;;;1.27;;
323;SDS011;149;51.094;17.002;2022-07-11T11:33:57;5.80;;;1.27;;
323;SDS011;149;51.094;17.002;2022-07-11T11:36:26;3.57;;;0.93;;
323;SDS011;149;51.094;17.002;2022-07-11T11:38:54;1.10;;;1.00;;
323;SDS011;149;51.094;17.002;2022-07-11T11:43:51;1.17;;;1.07;;
323;SDS011;149;51.094;17.002;2022-07-11T11:46:20;1.13;;;1.00;;
323;SDS011;149;51.094;17.002;2022-07-11T11:48:54;1.50;;;1.40;;
323;SDS011;149;51.094;17.002;2022-07-11T11:51:22;3.63;;;1.90;;
323;SDS011;149;51.094;17.002;2022-07-11T11:53:51;2.83;;;1.13;;
323;SDS011;149;51.094;17.002;2022-07-11T11:56:24;2.90;;;0.93;;
323;SDS011;149;51.094;17.002;2022-07-11T11:59:00;1.90;;;0.73;;
323;SDS011;149;51.094;17.002;2022-07-11T12:01:34;1.10;;;1.03;;
323;SDS011;149;51.094;17.002;2022-07-11T12:04:10;5.43;;;1.40;;
323;SDS011;149;51.094;17.002;2022-07-11T12:06:39;3.67;;;1.17;;
323;SDS011;149;51.094;17.002;2022-07-11T12:09:17;3.13;;;1.67;;
323;SDS011;149;51.094;17.002;2022-07-11T12:12:06;1.10;;;0.90;;
323;SDS011;149;51.094;17.002;2022-07-11T12:14:52;1.70;;;0.90;;
323;SDS011;149;51.094;17.002;2022-07-11T12:17:23;1.57;;;0.90;;
323;SDS011;149;51.094;17.002;2022-07-11T12:19:55;0.80;;;0.80;;
323;SDS011;149;51.094;17.002;2022-07-11T12:22:23;2.73;;;1.30;;
323;SDS011;149;51.094;17.002;2022-07-11T12:24:52;1.23;;;1.13;;
323;SDS011;149;51.094;17.002;2022-07-11T12:27:24;1.63;;;1.40;;
323;SDS011;149;51.094;17.002;2022-07-11T12:29:52;0.83;;;0.80;;
323;SDS011;149;51.094;17.002;2022-07-11T12:32:20;0.97;;;0.90;;
323;SDS011;149;51.094;17.002;2022-07-11T12:34:51;0.80;;;0.80;;
323;SDS011;149;51.094;17.002;2022-07-11T12:37:24;3.27;;;1.87;;
323;SDS011;149;51.094;17.002;2022-07-11T12:40:04;3.50;;;1.73;;
323;SDS011;149;51.094;17.002;2022-07-11T12:42:42;5.90;;;1.10;;
323;SDS011;149;51.094;17.002;2022-07-11T12:45:13;1.17;;;0.80;;
323;SDS011;149;51.094;17.002;2022-07-11T12:47:43;3.00;;;1.53;;
323;SDS011;149;51.094;17.002;2022-07-11T12:52:46;3.03;;;0.73;;
323;SDS011;149;51.094;17.002;2022-07-11T13:00:34;1.40;;;1.00;;
323;SDS011;149;51.094;17.002;2022-07-11T13:03:04;2.10;;;0.73;;
323;SDS011;149;51.094;17.002;2022-07-11T13:05:52;0.70;;;0.70;;
323;SDS011;149;51.094;17.002;2022-07-11T13:08:22;1.90;;;1.80;;
323;SDS011;149;51.094;17.002;2022-07-11T13:11:13;1.50;;;1.17;;
323;SDS011;149;51.094;17.002;2022-07-11T13:13:41;8.27;;;1.30;;
323;SDS011;149;51.094;17.002;2022-07-11T13:16:10;2.47;;;1.30;;
323;SDS011;149;51.094;17.002;2022-07-11T13:18:37;2.03;;;1.00;;
323;SDS011;149;51.094;17.002;2022-07-11T13:21:05;0.67;;;0.63;;
323;SDS011;149;51.094;17.002;2022-07-11T13:23:36;0.60;;;0.60;;
323;SDS011;149;51.094;17.002;2022-07-11T13:26:11;1.60;;;1.07;;
323;SDS011;149;51.094;17.002;2022-07-11T13:28:38;1.47;;;0.83;;
323;SDS011;149;51.094;17.002;2022-07-11T13:31:06;1.33;;;1.23;;
323;SDS011;149;51.094;17.002;2022-07-11T13:33:41;2.23;;;0.70;;
323;SDS011;149;51.094;17.002;2022-07-11T13:36:09;2.97;;;1.00;;
323;SDS011;149;51.094;17.002;2022-07-11T13:38:36;1.43;;;0.97;;
323;SDS011;149;51.094;17.002;2022-07-11T13:41:03;0.53;;;0.53;;
323;SDS011;149;51.094;17.002;2022-07-11T13:43:34;0.60;;;0.60;;
323;SDS011;149;51.094;17.002;2022-07-11T13:46:04;1.57;;;0.70;;
323;SDS011;149;51.094;17.002;2022-07-11T13:48:31;3.03;;;1.00;;
323;SDS011;149;51.094;17.002;2022-07-11T13:50:58;2.57;;;1.10;;
323;SDS011;149;51.094;17.002;2022-07-11T13:53:26;0.93;;;0.70;;
323;SDS011;149;51.094;17.002;2022-07-11T13:55:53;3.80;;;1.10;;
323;SDS011;149;51.094;17.002;2022-07-11T13:58:21;0.60;;;0.50;;
323;SDS011;149;51.094;17.002;2022-07-11T14:00:56;1.27;;;0.80;;
323;SDS011;149;51.094;17.002;2022-07-11T14:03:24;1.37;;;0.73;;
323;SDS011;149;51.094;17.002;2022-07-11T14:05:51;0.60;;;0.50;;
323;SDS011;149;51.094;17.002;2022-07-11T14:08:19;1.43;;;0.70;;
323;SDS011;149;51.094;17.002;2022-07-11T14:10:47;1.33;;;0.70;;
323;SDS011;149;51.094;17.002;2022-07-11T14:13:14;0.50;;;0.50;;
323;SDS011;149;51.094;17.002;2022-07-11T14:15:41;1.20;;;0.70;;
323;SDS011;149;51.094;17.002;2022-07-11T14:18:09;0.53;;;0.53;;
323;SDS011;149;51.094;17.002;2022-07-11T14:20:36;0.90;;;0.53;;
323;SDS011;149;51.094;17.002;2022-07-11T14:23:03;6.93;;;1.07;;
323;SDS011;149;51.094;17.002;2022-07-11T14:25:30;1.13;;;0.90;;
323;SDS011;149;51.094;17.002;2022-07-11T14:27:59;1.00;;;0.80;;
323;SDS011;149;51.094;17.002;2022-07-11T14:30:26;0.90;;;0.60;;
323;SDS011;149;51.094;17.002;2022-07-11T14:32:54;1.13;;;0.80;;
323;SDS011;149;51.094;17.002;2022-07-11T14:35:21;1.57;;;0.93;;
323;SDS011;149;51.094;17.002;2022-07-11T14:37:49;0.73;;;0.73;;
323;SDS011;149;51.094;17.002;2022-07-11T14:40:16;0.83;;;0.83;;
323;SDS011;149;51.094;17.002;2022-07-11T14:42:44;2.10;;;0.87;;
323;SDS011;149;51.094;17.002;2022-07-11T14:45:11;0.80;;;0.80;;
323;SDS011;149;51.094;17.002;2022-07-11T14:47:39;0.67;;;0.67;;
323;SDS011;149;51.094;17.002;2022-07-11T14:50:07;1.03;;;0.73;;
323;SDS011;149;51.094;17.002;2022-07-11T14:52:35;0.80;;;0.80;;
323;SDS011;149;51.094;17.002;2022-07-11T14:55:03;1.20;;;0.70;;
323;SDS011;149;51.094;17.002;2022-07-11T14:57:32;1.30;;;0.90;;
323;SDS011;149;51.094;17.002;2022-07-11T14:59:59;0.90;;;0.80;;
323;SDS011;149;51.094;17.002;2022-07-11T15:02:26;2.87;;;0.73;;
323;SDS011;149;51.094;17.002;2022-07-11T15:05:12;0.70;;;0.70;;
323;SDS011;149;51.094;17.002;2022-07-11T15:07:40;0.70;;;0.60;;
323;SDS011;149;51.094;17.002;2022-07-11T15:10:26;0.70;;;0.70;;
323;SDS011;149;51.094;17.002;2022-07-11T15:13:17;4.30;;;0.80;;
323;SDS011;149;51.094;17.002;2022-07-11T15:15:45;0.80;;;0.80;;
323;SDS011;149;51.094;17.002;2022-07-11T15:18:12;1.13;;;0.80;;
323;SDS011;149;51.094;17.002;2022-07-11T15:20:40;0.60;;;0.60;;
323;SDS011;149;51.094;17.002;2022-07-11T15:23:07;0.80;;;0.80;;
323;SDS011;149;51.094;17.002;2022-07-11T15:25:34;1.23;;;0.90;;
323;SDS011;149;51.094;17.002;2022-07-11T15:28:01;1.13;;;1.03;;
323;SDS011;149;51.094;17.002;2022-07-11T15:30:29;1.03;;;0.60;;
323;SDS011;149;51.094;17.002;2022-07-11T15:32:56;0.70;;;0.70;;
323;SDS011;149;51.094;17.002;2022-07-11T15:35:23;1.83;;;1.37;;
323;SDS011;149;51.094;17.002;2022-07-11T15:37:51;1.27;;;1.17;;
323;SDS011;149;51.094;17.002;2022-07-11T15:40:19;1.87;;;1.37;;
323;SDS011;149;51.094;17.002;2022-07-11T15:42:46;1.33;;;1.20;;
323;SDS011;149;51.094;17.002;2022-07-11T15:45:13;1.50;;;1.03;;
323;SDS011;149;51.094;17.002;2022-07-11T15:47:40;1.20;;;0.97;;
323;SDS011;149;51.094;17.002;2022-07-11T15:50:08;0.90;;;0.90;;
323;SDS011;149;51.094;17.002;2022-07-11T15:52:35;2.13;;;1.47;;
323;SDS011;149;51.094;17.002;2022-07-11T15:55:02;1.60;;;1.00;;
323;SDS011;149;51.094;17.002;2022-07-11T15:57:30;1.47;;;1.10;;
323;SDS011;149;51.094;17.002;2022-07-11T15:59:58;1.37;;;1.27;;
323;SDS011;149;51.094;17.002;2022-07-11T16:02:27;1.00;;;0.90;;
323;SDS011;149;51.094;17.002;2022-07-11T16:04:55;1.33;;;1.17;;
323;SDS011;149;51.094;17.002;2022-07-11T16:07:22;1.83;;;1.50;;
323;SDS011;149;51.094;17.002;2022-07-11T16:09:50;2.40;;;1.10;;
323;SDS011;149;51.094;17.002;2022-07-11T16:12:17;5.17;;;1.03;;
323;SDS011;149;51.094;17.002;2022-07-11T16:14:44;1.83;;;1.00;;
323;SDS011;149;51.094;17.002;2022-07-11T16:17:11;1.57;;;0.73;;
323;SDS011;149;51.094;17.002;2022-07-11T16:19:39;1.47;;;1.23;;
323;SDS011;149;51.094;17.002;2022-07-11T16:22:06;4.70;;;1.30;;
323;SDS011;149;51.094;17.002;2022-07-11T16:24:34;5.50;;;0.90;;
323;SDS011;149;51.094;17.002;2022-07-11T16:27:01;1.10;;;1.00;;